Hartsfield Jackson Atlanta International Airport
KATL : rendu visible

Aérodrome :











RETROUVEZ-NOUS SUR...

 
LOGIN :

S'inscrire | Disclaimer

   EN    FR    IT 

 









Légende :    VFR   VFR Marginal   IFR   IFR Intensif   IFR Très Intensif
Visi : 
Plafond : 
>= 8 km
>= 3000ft
5 à 8 km
1000 à 3000 ft
1500m à 5 km
500 à 1000 ft
800 à 1500m
200 à 500 ft
< 800m
< 200 ft
Symboles :   Orages  Brouillard  Fortes neiges  Fortes précipitations  Vent > 20 kt






- Altitude de l'aérodrome : 1026 ft
- Code IATA : ATL


KATL - Hartsfield Jackson Atlanta International

DERNIER METAR :
  • 131652Z 26005KT 10SM FEW033TCU FEW075 SCT100 SCT200 31/21 A3006 RMK AO2 SLP169 TCU N MDT CU OHD NW-N T03060211

METARs EXPIRÉS :
  • 131552Z 17005KT 10SM FEW030 FEW200 SCT250 30/22 A3007 RMK AO2 SLP170 T03000222
  • 131452Z 16004KT 10SM FEW024 SCT140 SCT200 SCT250 28/22 A3008 RMK AO2 SLP175 T02780217 51004

TAF KATL
Valide du 13 à 16h jusqu'au 14 à 18h UTC


131559Z 1316/1418 17005KT P6SM VCSH FEW030 FEW200 SCT250
TEMPO 1318/1322 VRB15G25KT 4SM TSRA SCT015 BKN030CB
FM140200 25005KT P6SM VCSH SCT040 BKN080
PROB30 1402/1406 4SM TSRA BKN030CB
FM140800 VRB03KT 6SM BR BKN025
FM141000 VRB03KT 6SM BR BKN008
FM141200 VRB03KT P6SM BKN015
FIR KZTL / Amérique du Nord



MET'MAP, la Météo Aéronautique d'un coup d'oeil ! - Copyright ORBIFLY Décembre 2007 - Disclaimer

ORBIFLY MET'MAP TEAM :

Programmation & Développement : Alexandra Zaïnal
Sur une idée originale de : Baudouin d'Aumeries
Assistance à la programmation : Marc-Olivier Méhu
Soutien technique & logistique : Manuel Goepfert

Contact : metmap@orbifly.com




SOURCES & CREDITS :

   NOAA       Earth
Advisory